createdAt,value
2017-08-27T17:55:20.162Z,62.40
2017-08-27T17:57:48.449Z,61.70
2017-08-27T18:00:17.475Z,61.20
2017-08-27T18:02:45.762Z,61.10
2017-08-27T18:05:14.024Z,61.90
2017-08-27T18:07:42.282Z,61.10
2017-08-27T18:10:10.561Z,61.10
2017-08-27T18:12:38.839Z,61.40
2017-08-27T18:15:07.118Z,61.30
2017-08-27T18:17:35.426Z,60.70
2017-08-27T18:20:03.728Z,61.40
2017-08-27T18:22:31.974Z,61.60
2017-08-27T18:25:00.267Z,61.60
2017-08-27T18:27:28.526Z,61.70
2017-08-27T18:29:56.805Z,61.60
2017-08-27T18:32:25.054Z,62.40
2017-08-27T18:34:54.103Z,63.30
2017-08-27T18:37:22.354Z,62.50
2017-08-27T18:39:50.630Z,63.00
2017-08-27T18:42:18.942Z,62.60
2017-08-27T18:44:47.223Z,63.30
2017-08-27T18:47:15.505Z,63.70
2017-08-27T18:49:44.598Z,64.20
2017-08-27T18:52:12.856Z,64.20
2017-08-27T18:54:41.132Z,64.00
2017-08-27T18:57:10.167Z,64.10
2017-08-27T18:59:38.427Z,64.00
2017-08-27T19:02:06.687Z,64.40
2017-08-27T19:04:34.967Z,64.00
2017-08-27T19:07:03.230Z,64.10
2017-08-27T19:09:31.507Z,63.80
2017-08-27T19:11:59.922Z,64.00
2017-08-27T19:14:28.336Z,64.90
2017-08-27T19:16:56.575Z,64.10
2017-08-27T19:19:24.837Z,63.80
2017-08-27T19:21:53.143Z,64.10
2017-08-27T19:24:21.381Z,64.30
2017-08-27T19:26:49.652Z,64.70
2017-08-27T19:29:17.907Z,64.70
2017-08-27T19:31:46.174Z,64.20
2017-08-27T19:34:14.429Z,64.90
2017-08-27T19:36:42.722Z,64.80
2017-08-27T19:39:11.052Z,65.00
2017-08-27T19:41:39.470Z,65.10
2017-08-27T19:44:07.751Z,64.90
2017-08-27T19:46:36.023Z,65.00
2017-08-27T19:49:04.273Z,65.10
2017-08-27T19:51:32.539Z,65.30
2017-08-27T19:54:00.805Z,65.40
2017-08-27T19:56:29.844Z,65.30
2017-08-27T19:58:58.104Z,65.30
2017-08-27T20:01:26.377Z,65.30
2017-08-27T20:03:54.640Z,65.10
2017-08-27T20:06:23.688Z,65.30
2017-08-27T20:08:51.932Z,65.20
2017-08-27T20:11:20.947Z,65.10
2017-08-27T20:13:49.205Z,65.20
2017-08-27T20:16:18.239Z,65.90
2017-08-27T20:18:47.076Z,65.80
2017-08-27T20:21:15.431Z,65.50
2017-08-27T20:23:43.730Z,65.40
2017-08-27T20:26:11.983Z,65.10
2017-08-27T20:28:40.365Z,65.00
2017-08-27T20:31:08.661Z,64.90
2017-08-27T20:33:36.939Z,65.20
2017-08-27T20:36:05.189Z,65.20
2017-08-27T20:38:33.449Z,65.80
2017-08-27T20:41:01.711Z,65.90
2017-08-27T20:43:29.990Z,65.80
2017-08-27T20:45:58.252Z,65.70
2017-08-27T20:48:26.988Z,66.10
2017-08-27T20:50:56.008Z,66.50
2017-08-27T20:53:24.285Z,66.50
2017-08-27T20:55:52.556Z,66.80
2017-08-27T20:58:20.870Z,67.00
2017-08-27T21:00:49.091Z,67.20
2017-08-27T21:03:18.128Z,67.50
2017-08-27T21:05:46.406Z,67.50
2017-08-27T21:08:14.688Z,67.70
2017-08-27T21:10:42.930Z,67.50
2017-08-27T21:13:11.963Z,67.70
2017-08-27T21:15:40.217Z,67.70
2017-08-27T21:18:08.537Z,67.50
2017-08-27T21:20:36.786Z,67.80
2017-08-27T21:23:05.058Z,67.70
2017-08-27T21:25:33.313Z,67.70
2017-08-27T21:28:01.582Z,67.10
2017-08-27T21:30:29.834Z,66.60
2017-08-27T21:32:58.146Z,66.50
2017-08-27T21:35:27.090Z,66.40
2017-08-27T21:37:55.346Z,66.10
2017-08-27T21:40:23.609Z,65.30
2017-08-27T21:42:51.864Z,64.90
2017-08-27T21:45:20.162Z,64.60
2017-08-27T21:47:48.422Z,64.30
2017-08-27T21:50:16.682Z,64.30
2017-08-27T21:52:44.934Z,64.30
2017-08-27T21:55:13.187Z,64.30
2017-08-27T21:57:41.428Z,64.40
2017-08-27T22:00:09.697Z,64.20
2017-08-27T22:02:38.724Z,64.10
2017-08-27T22:05:06.992Z,64.00
2017-08-27T22:07:35.236Z,64.20
2017-08-27T22:10:03.518Z,64.10
2017-08-27T22:12:32.348Z,64.30
2017-08-27T22:15:00.630Z,64.30
2017-08-27T22:17:28.880Z,64.10
2017-08-27T22:19:57.126Z,64.30
2017-08-27T22:22:25.370Z,64.20
2017-08-27T22:24:53.626Z,64.30
2017-08-27T22:27:21.895Z,64.50
2017-08-27T22:29:50.138Z,65.60
2017-08-27T22:32:18.384Z,64.40
2017-08-27T22:34:47.405Z,64.70
2017-08-27T22:37:15.656Z,64.60
2017-08-27T22:39:43.920Z,65.00
2017-08-27T22:42:12.165Z,65.20
2017-08-27T22:44:40.429Z,65.60
2017-08-27T22:47:08.693Z,66.20
2017-08-27T22:49:36.935Z,66.70
2017-08-27T22:52:05.199Z,66.90
2017-08-27T22:54:33.447Z,67.40
2017-08-27T22:57:01.707Z,67.40
2017-08-27T22:59:29.960Z,67.50
2017-08-27T23:01:58.225Z,67.50
2017-08-27T23:04:26.467Z,68.20
2017-08-27T23:06:54.744Z,67.80
2017-08-27T23:09:22.982Z,67.80
2017-08-27T23:11:51.247Z,68.00
2017-08-27T23:14:19.494Z,67.70
2017-08-27T23:16:47.763Z,68.40
2017-08-27T23:19:16.000Z,67.50
2017-08-27T23:21:44.286Z,67.80
2017-08-27T23:24:12.526Z,68.10
2017-08-27T23:26:40.782Z,67.60
2017-08-27T23:29:09.026Z,67.20
2017-08-27T23:31:38.054Z,66.90
2017-08-27T23:34:06.336Z,66.80
2017-08-27T23:36:34.590Z,66.90
2017-08-27T23:39:02.833Z,66.70
2017-08-27T23:41:31.087Z,66.10
2017-08-27T23:43:59.323Z,66.00
2017-08-27T23:46:27.583Z,66.20
2017-08-27T23:48:55.835Z,66.20
2017-08-27T23:51:24.098Z,66.10
2017-08-27T23:53:52.359Z,65.90
2017-08-27T23:56:20.614Z,66.00
2017-08-27T23:58:48.871Z,65.80
